Terminal Aerodrome Forecast
Issued by NWS

Home | Current Version | Previous Version | Text Only | Print | Product List | Glossary On
Versions: 1 2 3 4 5 6 7 8 9 10 11 12 13 14 15
512
FTUS43 KDLH 240421 AAA
TAFHIB
TAF AMD
KHIB 240421Z 2404/2424 09009KT P6SM SCT025 OVC070
     FM240800 10012KT P6SM BKN025
     FM241000 09012KT P6SM BKN012
     FM241600 12012G20KT P6SM SCT015 BKN035=

USA.gov is the U.S. government's official web portal to all federal, state and local government web resources and services.